Time;durP1;ratioP1;P1;durP2;ratioP2;P2;SDS_P1;SDS_P2;PMS_P1;PMS_P2;Temp;Humidity;BMP_temperature;BMP_pressure;BME280_temperature;BME280_humidity;BME280_pressure;Samples;Min_cycle;Max_cycle;Signal;HPM_P1;HPM_P2
2021/12/07 00:01:25;;;;;;;28.67;23.00;;;2.10;99.90;;;;;;5039167;28;20660;-57
2021/12/07 00:03:51;;;;;;;29.05;22.42;;;2.10;99.90;;;;;;5044293;28;20472;-60
2021/12/07 00:06:18;;;;;;;28.08;22.10;;;2.10;99.90;;;;;;5057362;28;20385;-57
2021/12/07 00:08:44;;;;;;;28.20;22.05;;;2.10;99.90;;;;;;5056808;28;20388;-57
2021/12/07 00:11:11;;;;;;;26.73;21.95;;;2.10;99.90;;;;;;5055437;28;20690;-54
2021/12/07 00:13:39;;;;;;;28.63;21.87;;;2.00;99.90;;;;;;5056044;28;20506;-54
2021/12/07 00:16:09;;;;;;;30.27;22.67;;;2.10;99.90;;;;;;5055932;28;20389;-56
2021/12/07 00:18:35;;;;;;;28.77;22.08;;;2.00;99.90;;;;;;5055947;28;20872;-58
2021/12/07 00:21:04;;;;;;;28.00;22.30;;;2.00;99.90;;;;;;5055881;28;20490;-57
2021/12/07 00:23:30;;;;;;;28.90;22.73;;;2.00;99.90;;;;;;5057688;28;20389;-55
2021/12/07 00:25:55;;;;;;;29.23;22.10;;;2.00;99.90;;;;;;5056440;28;20413;-58
2021/12/07 00:28:23;;;;;;;28.23;22.50;;;2.00;99.90;;;;;;5056372;28;20466;-58
2021/12/07 00:30:52;;;;;;;28.83;21.40;;;2.00;99.90;;;;;;5056372;28;20389;-57
2021/12/07 00:35:51;;;;;;;29.02;22.25;;;2.00;99.90;;;;;;5057617;28;20447;-55
2021/12/07 00:38:21;;;;;;;27.88;21.92;;;2.00;99.90;;;;;;5057551;28;20495;-54
2021/12/07 00:40:47;;;;;;;30.63;23.20;;;2.00;99.90;;;;;;5057107;28;20412;-55
2021/12/07 00:43:14;;;;;;;29.77;23.00;;;2.00;99.90;;;;;;5057725;28;20812;-54
2021/12/07 00:45:44;;;;;;;29.90;22.88;;;1.90;99.90;;;;;;5057199;28;20385;-55
2021/12/07 00:48:10;;;;;;;29.30;23.02;;;1.90;99.90;;;;;;5054340;28;20389;-57
2021/12/07 00:50:37;;;;;;;28.53;22.07;;;1.90;99.90;;;;;;5055570;28;20392;-55
2021/12/07 00:53:05;;;;;;;30.42;23.83;;;1.90;99.90;;;;;;5055850;28;20401;-57
2021/12/07 00:55:35;;;;;;;30.80;23.45;;;2.00;99.90;;;;;;5055523;28;20389;-58
2021/12/07 00:58:06;;;;;;;30.40;23.83;;;1.90;99.90;;;;;;5055934;28;20661;-56
2021/12/07 01:00:32;;;;;;;29.25;23.50;;;1.90;99.90;;;;;;5056858;28;20510;-56
2021/12/07 01:02:58;;;;;;;30.77;22.93;;;1.90;99.90;;;;;;5054838;28;20496;-51
2021/12/07 01:05:30;;;;;;;26.80;21.67;;;1.90;99.90;;;;;;5055470;28;21037;-58
2021/12/07 01:08:14;;;;;;;31.23;25.02;;;2.00;99.90;;;;;;5039906;28;20385;-57
2021/12/07 01:24:43;;;;;;;29.97;23.63;;;2.10;99.90;;;;;;5055235;28;20816;-56
2021/12/07 01:27:19;;;;;;;28.30;22.13;;;2.00;99.90;;;;;;5055900;28;20450;-58
2021/12/07 01:29:54;;;;;;;31.15;24.02;;;2.00;99.90;;;;;;5038746;28;20394;-55
2021/12/07 01:32:35;;;;;;;32.55;24.83;;;2.00;99.90;;;;;;5054350;28;20480;-55
2021/12/07 01:46:38;;;;;;;32.53;24.65;;;1.90;99.90;;;;;;5057090;28;20389;-57
2021/12/07 01:52:05;;;;;;;29.02;23.38;;;1.90;99.90;;;;;;5055602;28;20392;-57
2021/12/07 01:59:59;;;;;;;30.65;23.70;;;2.00;99.90;;;;;;5055692;28;20409;-56
2021/12/07 02:02:28;;;;;;;30.35;23.75;;;2.00;99.90;;;;;;5053494;28;20406;-57
2021/12/07 02:04:56;;;;;;;29.38;22.50;;;2.00;99.90;;;;;;5053018;28;20721;-58
2021/12/07 02:07:23;;;;;;;31.02;23.88;;;2.00;99.90;;;;;;5054606;28;20392;-53
2021/12/07 02:09:53;;;;;;;29.40;23.42;;;2.00;99.90;;;;;;5052766;28;20409;-57
2021/12/07 02:12:19;;;;;;;28.30;22.45;;;2.00;99.90;;;;;;5054126;28;20665;-55
2021/12/07 02:14:45;;;;;;;31.75;23.33;;;2.10;99.90;;;;;;5055051;28;20828;-56
2021/12/07 02:17:15;;;;;;;29.88;23.73;;;2.00;99.90;;;;;;5055039;28;20378;-57
2021/12/07 02:19:41;;;;;;;29.92;24.00;;;2.00;99.90;;;;;;5055546;28;20862;-56
2021/12/07 02:22:09;;;;;;;28.30;23.40;;;2.00;99.90;;;;;;5053531;28;21048;-57
2021/12/07 02:24:35;;;;;;;30.65;23.98;;;2.00;99.90;;;;;;5053802;28;20454;-54
2021/12/07 02:27:02;;;;;;;28.88;22.67;;;2.00;99.90;;;;;;5054173;28;20476;-55
2021/12/07 02:29:28;;;;;;;30.08;22.65;;;2.00;99.90;;;;;;5053621;28;20481;-58
2021/12/07 02:31:57;;;;;;;31.50;24.13;;;2.00;99.90;;;;;;5053963;28;20431;-55
2021/12/07 02:34:24;;;;;;;31.07;23.73;;;1.90;99.90;;;;;;5054822;28;20499;-55
2021/12/07 02:36:51;;;;;;;29.93;23.77;;;1.90;99.90;;;;;;5056328;28;20462;-54
2021/12/07 02:39:17;;;;;;;30.92;24.60;;;1.90;99.90;;;;;;5055204;28;20385;-53
2021/12/07 02:41:43;;;;;;;29.77;23.05;;;1.90;99.90;;;;;;5054554;28;20405;-57
2021/12/07 02:44:09;;;;;;;32.38;24.58;;;1.90;99.90;;;;;;5053737;28;20388;-56
2021/12/07 02:46:38;;;;;;;32.35;24.92;;;1.90;99.90;;;;;;5054519;28;20381;-57
2021/12/07 02:49:08;;;;;;;32.47;24.67;;;1.90;99.90;;;;;;5052923;28;20506;-57
2021/12/07 02:51:34;;;;;;;32.88;24.25;;;1.90;99.90;;;;;;5054028;28;20398;-55
2021/12/07 02:54:00;;;;;;;32.65;26.20;;;1.80;99.90;;;;;;5053946;28;20400;-57
2021/12/07 02:56:27;;;;;;;31.55;24.65;;;1.80;99.90;;;;;;5053975;28;20385;-57
2021/12/07 02:59:01;;;;;;;33.33;26.63;;;1.90;99.90;;;;;;5055515;28;20803;-54
2021/12/07 03:01:31;;;;;;;34.38;25.67;;;1.90;99.90;;;;;;5053932;28;20679;-58
2021/12/07 03:04:06;;;;;;;33.30;25.67;;;1.90;99.90;;;;;;5055202;28;20389;-54
2021/12/07 03:07:01;;;;;;;34.10;25.27;;;1.90;99.90;;;;;;5054199;28;20389;-55
2021/12/07 03:26:16;;;;;;;32.95;25.70;;;1.90;99.90;;;;;;5055695;28;20381;-57
2021/12/07 03:28:43;;;;;;;34.05;26.95;;;1.90;99.90;;;;;;5055015;28;20385;-53
2021/12/07 03:31:09;;;;;;;32.77;25.33;;;1.90;99.90;;;;;;5053291;28;20451;-56
2021/12/07 03:33:36;;;;;;;32.90;25.45;;;1.90;99.90;;;;;;5055222;28;20393;-57
2021/12/07 03:36:05;;;;;;;33.03;25.58;;;2.00;99.90;;;;;;5054544;28;20801;-57
2021/12/07 03:38:32;;;;;;;29.77;24.42;;;2.00;99.90;;;;;;5054275;28;20380;-54
2021/12/07 03:41:00;;;;;;;31.67;23.80;;;2.00;99.90;;;;;;5055575;28;20413;-55
2021/12/07 03:43:26;;;;;;;33.70;25.60;;;2.10;99.90;;;;;;5054937;28;20435;-55
2021/12/07 03:45:51;;;;;;;36.47;26.77;;;2.10;99.90;;;;;;5054634;28;21008;-55
2021/12/07 03:48:18;;;;;;;31.60;25.17;;;2.00;99.90;;;;;;5054340;28;20393;-56
2021/12/07 03:50:44;;;;;;;34.55;26.70;;;2.00;99.90;;;;;;5036873;28;20493;-55
2021/12/07 03:53:10;;;;;;;33.43;25.37;;;2.00;99.90;;;;;;5053660;28;20395;-55
2021/12/07 03:55:36;;;;;;;36.25;26.98;;;2.00;99.90;;;;;;5053758;28;20389;-57
2021/12/07 03:58:02;;;;;;;32.28;25.40;;;1.90;99.90;;;;;;5053114;28;20385;-56
2021/12/07 04:00:32;;;;;;;31.50;24.67;;;2.00;99.90;;;;;;5052161;28;20676;-57
2021/12/07 04:02:58;;;;;;;31.15;24.95;;;2.00;99.90;;;;;;5052513;28;20446;-56
2021/12/07 04:05:26;;;;;;;36.45;26.42;;;2.00;99.90;;;;;;5051013;28;21021;-57
2021/12/07 04:07:52;;;;;;;33.17;26.05;;;2.10;99.90;;;;;;5051191;28;20467;-51
2021/12/07 04:10:19;;;;;;;31.70;24.92;;;2.10;99.90;;;;;;5051278;28;20393;-54
2021/12/07 04:12:45;;;;;;;36.08;26.55;;;2.00;99.90;;;;;;5051266;28;20397;-52
2021/12/07 04:15:13;;;;;;;33.03;26.35;;;2.00;99.90;;;;;;5051507;28;20571;-53
2021/12/07 04:17:39;;;;;;;33.55;25.80;;;2.00;99.90;;;;;;5051020;28;20381;-58
2021/12/07 04:20:09;;;;;;;33.28;26.35;;;2.00;99.90;;;;;;5051126;28;20761;-52
2021/12/07 04:22:35;;;;;;;33.25;26.27;;;2.00;99.90;;;;;;5052411;28;20451;-58
2021/12/07 04:25:01;;;;;;;31.23;25.25;;;2.00;99.90;;;;;;5052529;28;20594;-57
2021/12/07 04:27:29;;;;;;;33.03;25.35;;;1.90;99.90;;;;;;5052751;28;20381;-57
2021/12/07 04:29:56;;;;;;;34.65;25.80;;;1.90;99.90;;;;;;5052821;28;20389;-56
2021/12/07 04:32:22;;;;;;;34.50;26.38;;;1.90;99.90;;;;;;5051626;28;20634;-57
2021/12/07 04:34:48;;;;;;;33.03;25.10;;;2.00;99.90;;;;;;5051898;28;20400;-57
2021/12/07 04:37:13;;;;;;;36.17;27.92;;;2.00;99.90;;;;;;5052268;28;20393;-58
2021/12/07 04:43:02;;;;;;;31.30;24.40;;;2.00;99.90;;;;;;5039309;28;20405;-56
2021/12/07 04:58:32;;;;;;;34.88;26.52;;;2.10;99.90;;;;;;5053776;28;20400;-55
2021/12/07 05:00:58;;;;;;;33.78;25.83;;;2.10;99.90;;;;;;5053030;28;20409;-53
2021/12/07 05:03:26;;;;;;;32.22;24.70;;;2.10;99.90;;;;;;5051736;28;20831;-56
2021/12/07 05:05:53;;;;;;;33.13;25.50;;;2.10;99.90;;;;;;5052473;28;20386;-56
2021/12/07 05:08:35;;;;;;;34.83;25.57;;;2.00;99.90;;;;;;5053362;28;20385;-57
2021/12/07 05:13:57;;;;;;;31.20;25.00;;;2.10;99.90;;;;;;5053834;28;20530;-57
2021/12/07 05:23:53;;;;;;;36.10;26.80;;;2.10;99.90;;;;;;5054107;28;20685;-57
2021/12/07 05:24:47;;;;;;;35.63;26.70;;;1.90;99.90;;;;;;5051312;28;20606;-54
2021/12/07 05:38:17;;;;;;;30.45;23.75;;;2.00;99.90;;;;;;5053163;28;20423;-56
2021/12/07 05:40:42;;;;;;;28.33;22.20;;;2.10;99.90;;;;;;5053642;28;20433;-57
2021/12/07 05:43:08;;;;;;;31.10;24.63;;;2.20;99.90;;;;;;5051617;28;20666;-55
2021/12/07 05:45:36;;;;;;;31.70;24.83;;;2.20;99.90;;;;;;5051705;28;20479;-53
2021/12/07 05:48:03;;;;;;;31.35;24.13;;;2.10;99.90;;;;;;5051882;28;20443;-55
2021/12/07 05:50:32;;;;;;;32.72;25.13;;;2.20;99.90;;;;;;5051261;28;20385;-58
2021/12/07 05:52:58;;;;;;;32.13;25.75;;;2.20;99.90;;;;;;5052835;28;20805;-56
2021/12/07 05:55:24;;;;;;;33.28;25.08;;;2.10;99.90;;;;;;5052146;28;20445;-54
2021/12/07 05:57:49;;;;;;;32.30;24.92;;;2.10;99.90;;;;;;5053983;28;20731;-57
2021/12/07 06:00:25;;;;;;;32.10;24.88;;;2.10;99.90;;;;;;5053813;28;20440;-57
2021/12/07 06:02:57;;;;;;;31.33;23.83;;;2.10;99.90;;;;;;5051491;28;20401;-54
2021/12/07 06:05:24;;;;;;;30.88;23.52;;;2.10;99.90;;;;;;5051637;28;20467;-56
2021/12/07 06:07:50;;;;;;;30.98;23.58;;;2.10;99.90;;;;;;5048669;28;20633;-52
2021/12/07 06:10:16;;;;;;;31.03;24.53;;;2.10;99.90;;;;;;5046827;28;20385;-57
2021/12/07 06:12:42;;;;;;;32.30;24.23;;;2.10;99.90;;;;;;5045668;28;20454;-57
2021/12/07 06:15:08;;;;;;;29.37;22.33;;;2.10;99.90;;;;;;5044422;28;20736;-55
2021/12/07 06:17:34;;;;;;;31.23;24.00;;;2.10;99.90;;;;;;5044244;28;20401;-58
2021/12/07 06:19:59;;;;;;;32.17;24.23;;;2.10;99.90;;;;;;5044589;28;20401;-54
2021/12/07 06:22:25;;;;;;;28.90;22.93;;;2.10;99.90;;;;;;5044492;28;20412;-58
2021/12/07 06:24:50;;;;;;;28.43;23.43;;;2.20;99.90;;;;;;5049209;28;20385;-55
2021/12/07 06:27:16;;;;;;;30.23;23.95;;;2.20;99.90;;;;;;5049850;28;20388;-57
2021/12/07 06:29:42;;;;;;;32.85;24.33;;;2.10;99.90;;;;;;5049744;28;20407;-56
2021/12/07 06:32:08;;;;;;;28.70;22.40;;;2.10;99.90;;;;;;5050801;28;20385;-56
2021/12/07 06:34:33;;;;;;;31.13;24.00;;;2.10;99.90;;;;;;5050842;28;20654;-56
2021/12/07 06:37:03;;;;;;;29.50;22.83;;;2.10;99.90;;;;;;5052700;28;21008;-54
2021/12/07 06:39:30;;;;;;;30.02;23.02;;;2.10;99.90;;;;;;5054806;28;20389;-54
2021/12/07 06:42:03;;;;;;;31.23;23.73;;;2.10;99.90;;;;;;5054771;28;20503;-57
2021/12/07 06:44:30;;;;;;;29.55;23.02;;;2.10;99.90;;;;;;5055034;28;20724;-55
2021/12/07 06:46:56;;;;;;;30.77;23.13;;;2.20;99.90;;;;;;5054212;28;20390;-56
2021/12/07 06:49:22;;;;;;;29.00;22.58;;;2.20;99.90;;;;;;5054155;28;20389;-60
2021/12/07 06:51:51;;;;;;;29.20;23.00;;;2.20;99.90;;;;;;5054978;28;20387;-60
2021/12/07 06:54:17;;;;;;;28.80;22.23;;;2.30;99.90;;;;;;5053164;28;20390;-55
2021/12/07 06:56:46;;;;;;;29.90;22.77;;;2.40;99.90;;;;;;5049468;28;20945;-57
2021/12/07 06:59:12;;;;;;;29.90;23.00;;;2.30;99.90;;;;;;5047388;28;20429;-51
2021/12/07 07:01:39;;;;;;;30.63;22.42;;;2.30;99.90;;;;;;5047868;28;20413;-56
2021/12/07 07:04:08;;;;;;;26.73;21.35;;;2.30;99.90;;;;;;5050224;28;20468;-52
2021/12/07 07:06:36;;;;;;;29.33;21.95;;;2.30;99.90;;;;;;5049466;28;20446;-57
2021/12/07 07:09:03;;;;;;;27.05;21.83;;;2.20;99.90;;;;;;5049652;28;20385;-55
2021/12/07 07:11:30;;;;;;;29.20;22.13;;;2.20;99.90;;;;;;5044434;28;20448;-55
2021/12/07 07:13:56;;;;;;;29.98;23.58;;;2.20;99.90;;;;;;5030116;28;20410;-53
2021/12/07 07:16:22;;;;;;;29.23;23.07;;;2.20;99.90;;;;;;5030680;28;20402;-55
2021/12/07 07:18:49;;;;;;;30.42;22.95;;;2.20;99.90;;;;;;5029670;28;20510;-52
2021/12/07 07:21:14;;;;;;;28.85;22.85;;;2.20;99.90;;;;;;5029884;28;20485;-55
2021/12/07 07:23:41;;;;;;;28.90;22.17;;;2.10;99.90;;;;;;5045767;28;20398;-56
2021/12/07 07:26:07;;;;;;;32.13;24.30;;;2.10;99.90;;;;;;5027184;28;20502;-56
2021/12/07 07:28:34;;;;;;;29.97;23.67;;;2.10;99.90;;;;;;5026928;28;20383;-57
2021/12/07 07:31:01;;;;;;;29.17;21.77;;;2.10;99.90;;;;;;5027552;28;20611;-56
2021/12/07 07:33:27;;;;;;;29.40;22.92;;;2.10;99.90;;;;;;5025550;28;20714;-56
2021/12/07 07:35:53;;;;;;;27.97;21.30;;;2.10;99.90;;;;;;5022168;28;20481;-55
2021/12/07 07:38:19;;;;;;;29.52;22.75;;;2.20;99.90;;;;;;5022264;28;20399;-55
2021/12/07 07:40:46;;;;;;;30.57;23.17;;;2.10;99.90;;;;;;5022179;28;20502;-54
2021/12/07 07:43:13;;;;;;;29.27;22.50;;;2.10;99.90;;;;;;5044196;28;20397;-54
2021/12/07 07:45:39;;;;;;;32.67;23.60;;;2.10;99.90;;;;;;5045138;28;20677;-55
2021/12/07 07:48:05;;;;;;;28.33;21.45;;;2.10;99.90;;;;;;5045817;28;20833;-57
2021/12/07 07:50:30;;;;;;;28.00;21.42;;;2.20;99.90;;;;;;5048252;28;20400;-56
2021/12/07 07:52:56;;;;;;;28.88;22.17;;;2.20;99.90;;;;;;5046063;28;20385;-55
2021/12/07 07:55:22;;;;;;;31.07;24.03;;;2.30;99.90;;;;;;5044792;28;20381;-54
2021/12/07 07:57:47;;;;;;;30.83;23.00;;;2.20;99.90;;;;;;5043274;28;20674;-55
2021/12/07 08:00:16;;;;;;;29.90;22.97;;;2.10;99.90;;;;;;5043729;28;20405;-55
2021/12/07 08:02:44;;;;;;;29.20;22.50;;;2.20;99.90;;;;;;5044784;28;20490;-54
2021/12/07 08:05:10;;;;;;;30.42;23.15;;;2.20;99.90;;;;;;5045203;28;20378;-57
2021/12/07 08:07:35;;;;;;;30.10;22.33;;;2.10;99.90;;;;;;5046934;28;20396;-55
2021/12/07 08:10:03;;;;;;;29.37;23.17;;;2.20;99.90;;;;;;5048057;28;20681;-55
2021/12/07 08:12:28;;;;;;;29.27;23.10;;;2.20;99.90;;;;;;5046454;28;20436;-55
2021/12/07 08:14:55;;;;;;;30.17;23.43;;;2.30;99.90;;;;;;5048610;28;20425;-55
2021/12/07 08:17:21;;;;;;;31.77;24.65;;;2.40;99.90;;;;;;5048350;28;20389;-53
2021/12/07 08:19:46;;;;;;;28.63;22.17;;;2.40;99.90;;;;;;5050119;28;20381;-58
2021/12/07 08:22:12;;;;;;;30.75;23.88;;;2.40;99.90;;;;;;5051563;28;20408;-56
2021/12/07 08:24:37;;;;;;;33.88;24.63;;;2.40;99.90;;;;;;5051649;28;20930;-55
2021/12/07 08:27:03;;;;;;;29.30;23.03;;;2.40;99.90;;;;;;5051360;28;20801;-57
2021/12/07 08:29:29;;;;;;;29.40;21.90;;;2.40;99.90;;;;;;5052012;28;20393;-57
2021/12/07 08:31:54;;;;;;;32.33;24.40;;;2.40;99.90;;;;;;5050675;28;20381;-55
2021/12/07 08:34:20;;;;;;;31.33;23.98;;;2.40;99.90;;;;;;5050758;28;20411;-57
2021/12/07 08:36:46;;;;;;;28.73;22.50;;;2.40;99.90;;;;;;5049210;28;20851;-56
2021/12/07 08:39:12;;;;;;;30.13;23.67;;;2.40;99.90;;;;;;5048736;28;20397;-54
2021/12/07 08:41:38;;;;;;;30.42;22.80;;;2.40;99.90;;;;;;5046480;28;20704;-55
2021/12/07 08:44:04;;;;;;;29.77;23.48;;;2.40;99.90;;;;;;5047217;28;20460;-57
2021/12/07 08:46:30;;;;;;;32.63;24.83;;;2.40;99.90;;;;;;5049356;28;20607;-58
2021/12/07 08:48:55;;;;;;;29.27;22.00;;;2.40;99.90;;;;;;5049914;28;20393;-52
2021/12/07 08:51:21;;;;;;;28.70;22.47;;;2.40;99.90;;;;;;5050226;28;20454;-54
2021/12/07 08:53:56;;;;;;;32.47;22.93;;;2.50;99.90;;;;;;5049873;28;20689;-58
2021/12/07 09:02:04;;;;;;;32.72;24.60;;;2.50;99.90;;;;;;5050078;28;20404;-57
2021/12/07 09:04:31;;;;;;;32.95;25.25;;;2.50;99.90;;;;;;5053805;28;20377;-56
2021/12/07 09:06:57;;;;;;;33.42;24.58;;;2.50;99.90;;;;;;5053706;28;21052;-57
2021/12/07 09:09:24;;;;;;;31.20;24.42;;;2.40;99.90;;;;;;5054602;28;20432;-58
2021/12/07 09:11:52;;;;;;;32.55;24.33;;;2.40;99.90;;;;;;5046989;28;20451;-55
2021/12/07 09:14:19;;;;;;;31.63;25.10;;;2.40;99.90;;;;;;5035272;28;20453;-57
2021/12/07 09:16:46;;;;;;;34.40;24.35;;;2.40;99.90;;;;;;5034580;28;20469;-54
2021/12/07 09:19:13;;;;;;;32.57;25.10;;;2.50;99.90;;;;;;5035269;28;20494;-54
2021/12/07 09:22:14;;;;;;;32.42;25.17;;;2.40;99.90;;;;;;5035501;28;21038;-56
2021/12/07 09:24:41;;;;;;;31.20;24.35;;;2.40;99.90;;;;;;5020518;28;20390;-55
2021/12/07 09:27:07;;;;;;;31.80;23.75;;;2.40;99.90;;;;;;5032476;28;20394;-55
2021/12/07 09:29:34;;;;;;;35.83;26.47;;;2.40;99.90;;;;;;5031391;28;20383;-56
2021/12/07 09:32:02;;;;;;;32.33;24.33;;;2.40;99.90;;;;;;5031047;28;20402;-57
2021/12/07 09:34:28;;;;;;;33.60;24.92;;;2.40;99.90;;;;;;5030160;28;20399;-58
2021/12/07 09:36:55;;;;;;;32.87;24.90;;;2.40;99.90;;;;;;5029741;28;21013;-57
2021/12/07 09:39:23;;;;;;;30.98;24.20;;;2.40;99.90;;;;;;5029769;28;21092;-54
2021/12/07 09:41:49;;;;;;;32.10;24.08;;;2.40;99.90;;;;;;5037561;28;20419;-56
2021/12/07 09:44:15;;;;;;;32.95;24.55;;;2.40;99.90;;;;;;5048720;28;20487;-54
2021/12/07 09:46:42;;;;;;;32.13;23.98;;;2.40;99.90;;;;;;5033254;28;20397;-55
2021/12/07 09:49:12;;;;;;;34.83;25.52;;;2.40;99.90;;;;;;5066064;28;20548;-52
2021/12/07 09:52:14;;;;;;;34.28;25.92;;;2.40;99.90;;;;;;5091791;28;20390;-54
2021/12/07 09:54:41;;;;;;;35.17;25.52;;;2.50;99.90;;;;;;5010909;28;20539;-54
2021/12/07 09:57:08;;;;;;;31.05;24.25;;;2.40;99.90;;;;;;5072036;28;21101;-55
2021/12/07 09:59:34;;;;;;;33.20;24.90;;;2.40;99.90;;;;;;5092113;28;20670;-55
2021/12/07 10:02:07;;;;;;;34.33;24.92;;;2.40;99.90;;;;;;5092262;28;20402;-56
2021/12/07 10:04:34;;;;;;;33.13;24.33;;;2.30;99.90;;;;;;5092312;28;20390;-57
2021/12/07 10:07:02;;;;;;;32.38;23.67;;;2.30;99.90;;;;;;5092428;28;20387;-50
2021/12/07 10:09:30;;;;;;;35.28;25.35;;;2.40;99.90;;;;;;5092767;28;20401;-56
2021/12/07 10:11:56;;;;;;;31.67;23.88;;;2.40;99.90;;;;;;5092817;28;20404;-56
2021/12/07 10:14:22;;;;;;;28.47;22.27;;;2.40;99.90;;;;;;5094014;28;20480;-54
2021/12/07 10:16:50;;;;;;;30.85;22.80;;;2.50;99.90;;;;;;5092655;28;20402;-55
2021/12/07 10:19:34;;;;;;;31.13;22.85;;;2.60;99.90;;;;;;5092261;28;20413;-56
2021/12/07 10:22:08;;;;;;;29.80;23.90;;;2.60;99.90;;;;;;5092356;28;20493;-54
2021/12/07 10:24:50;;;;;;;32.80;24.40;;;2.60;99.90;;;;;;5091928;28;20794;-52
2021/12/07 10:27:35;;;;;;;30.03;23.63;;;2.60;99.90;;;;;;5090911;28;20422;-55
2021/12/07 10:30:16;;;;;;;32.13;24.10;;;2.50;99.90;;;;;;5090478;28;20413;-55
2021/12/07 10:32:41;;;;;;;31.65;24.25;;;2.60;99.90;;;;;;5090310;28;20459;-55
2021/12/07 10:35:32;;;;;;;29.70;23.17;;;2.50;99.90;;;;;;5091478;28;20381;-57
2021/12/07 10:38:16;;;;;;;31.33;23.97;;;2.60;99.90;;;;;;5091106;28;21042;-57
2021/12/07 10:41:05;;;;;;;32.53;24.73;;;2.60;99.90;;;;;;5074435;28;20402;-57
2021/12/07 10:43:48;;;;;;;33.87;24.67;;;2.60;99.90;;;;;;5069348;28;20379;-56
2021/12/07 10:46:36;;;;;;;34.03;24.92;;;2.50;99.90;;;;;;5068791;28;20384;-57
2021/12/07 10:49:14;;;;;;;32.55;23.92;;;2.60;99.90;;;;;;5068822;28;20434;-53
2021/12/07 10:51:54;;;;;;;31.08;23.58;;;2.60;99.90;;;;;;5070742;28;20436;-57
2021/12/07 10:54:21;;;;;;;31.40;23.50;;;2.60;99.90;;;;;;5067765;28;20399;-56
2021/12/07 10:56:50;;;;;;;31.83;22.85;;;2.70;99.90;;;;;;5068466;28;21078;-58
2021/12/07 10:59:17;;;;;;;30.00;22.45;;;2.70;99.90;;;;;;5069595;28;20375;-54
2021/12/07 11:01:46;;;;;;;31.42;24.35;;;2.70;99.90;;;;;;5068199;28;20690;-54
2021/12/07 11:04:33;;;;;;;31.05;23.40;;;2.70;99.90;;;;;;5048724;28;20415;-55
2021/12/07 11:07:13;;;;;;;33.13;23.83;;;2.70;99.90;;;;;;5068474;28;20403;-55
2021/12/07 11:10:32;;;;;;;31.37;24.50;;;2.70;99.90;;;;;;5068535;28;20449;-56
2021/12/07 11:13:35;;;;;;;30.10;23.30;;;2.60;99.90;;;;;;5069276;28;21053;-55
2021/12/07 11:16:00;;;;;;;30.38;23.15;;;2.60;99.90;;;;;;5085339;28;20386;-56
2021/12/07 11:18:40;;;;;;;29.75;22.25;;;2.70;99.90;;;;;;5084606;28;20378;-56
2021/12/07 11:21:17;;;;;;;28.90;22.35;;;2.70;99.90;;;;;;5069071;28;20612;-57
2021/12/07 11:23:53;;;;;;;31.83;23.55;;;2.80;99.90;;;;;;5087153;28;20766;-57
2021/12/07 11:31:39;;;;;;;27.67;21.27;;;2.70;99.90;;;;;;5090682;28;20924;-57
2021/12/07 11:34:05;;;;;;;29.95;23.30;;;2.80;99.90;;;;;;5091272;28;20492;-52
2021/12/07 11:36:34;;;;;;;31.27;23.50;;;2.90;99.90;;;;;;5089898;28;20473;-55
2021/12/07 11:39:17;;;;;;;28.10;23.40;;;2.90;99.90;;;;;;5088329;28;20461;-56
2021/12/07 11:41:48;;;;;;;28.08;22.63;;;2.80;99.90;;;;;;5073486;28;20616;-58
2021/12/07 11:44:14;;;;;;;31.27;23.27;;;2.80;99.90;;;;;;5073213;28;20378;-53
2021/12/07 11:46:49;;;;;;;32.20;23.05;;;2.90;99.90;;;;;;5090188;28;20420;-57
2021/12/07 11:49:21;;;;;;;30.27;23.25;;;2.90;99.90;;;;;;5087077;28;20414;-58
2021/12/07 11:51:50;;;;;;;31.43;24.23;;;3.00;99.90;;;;;;5088579;28;20487;-57
2021/12/07 11:54:20;;;;;;;29.88;22.88;;;3.00;99.90;;;;;;5092008;28;20472;-54
2021/12/07 11:56:47;;;;;;;29.85;22.65;;;3.00;99.90;;;;;;5094889;28;20672;-53
2021/12/07 11:59:15;;;;;;;31.73;23.05;;;3.00;99.90;;;;;;5095259;28;20385;-57
2021/12/07 12:01:43;;;;;;;30.38;23.30;;;3.00;99.90;;;;;;5092576;28;20475;-57
2021/12/07 12:04:10;;;;;;;29.35;22.50;;;3.00;99.90;;;;;;5092983;28;20393;-58
2021/12/07 12:06:46;;;;;;;29.25;23.10;;;3.00;99.90;;;;;;5093808;28;20377;-56
2021/12/07 12:16:08;;;;;;;31.13;23.80;;;2.80;99.90;;;;;;5069405;28;20363;-56
2021/12/07 12:19:04;;;;;;;28.95;22.23;;;2.80;99.90;;;;;;5068180;28;20414;-53
2021/12/07 12:21:51;;;;;;;28.60;21.98;;;2.80;99.90;;;;;;5068023;28;20765;-56
2021/12/07 12:24:25;;;;;;;31.92;23.00;;;2.80;99.90;;;;;;5068931;28;20410;-58
2021/12/07 12:27:06;;;;;;;28.60;22.42;;;2.90;99.90;;;;;;5068537;28;20617;-58
2021/12/07 12:29:34;;;;;;;29.40;23.00;;;2.90;99.90;;;;;;5067124;28;20757;-57
2021/12/07 12:31:59;;;;;;;29.52;22.65;;;3.00;99.90;;;;;;5066003;28;20826;-53
2021/12/07 12:34:28;;;;;;;26.17;21.00;;;3.10;99.90;;;;;;5063688;28;20871;-55
2021/12/07 12:37:09;;;;;;;29.48;22.30;;;3.20;99.90;;;;;;5063985;28;20453;-53
2021/12/07 12:39:57;;;;;;;27.25;21.40;;;3.10;99.90;;;;;;5065975;28;20379;-58
2021/12/07 12:42:45;;;;;;;30.33;23.25;;;3.10;99.90;;;;;;5062714;28;20811;-56
2021/12/07 12:45:27;;;;;;;28.08;21.63;;;3.10;99.90;;;;;;5066709;28;20449;-55
2021/12/07 12:48:01;;;;;;;29.10;22.30;;;3.10;99.90;;;;;;5066863;28;20380;-55
2021/12/07 12:50:30;;;;;;;29.38;22.15;;;3.10;99.90;;;;;;5066763;28;20400;-58
2021/12/07 12:53:08;;;;;;;31.58;22.95;;;3.10;99.90;;;;;;5064898;28;20419;-58
2021/12/07 12:55:47;;;;;;;32.23;24.10;;;3.20;99.90;;;;;;5061952;28;20653;-57
2021/12/07 12:58:41;;;;;;;31.35;23.10;;;3.10;99.90;;;;;;5061446;28;20474;-57
2021/12/07 13:01:11;;;;;;;34.88;24.75;;;3.10;99.90;;;;;;5032047;28;20600;-60
2021/12/07 13:03:42;;;;;;;35.22;25.73;;;3.20;99.90;;;;;;5064835;28;20487;-59
2021/12/07 13:06:21;;;;;;;32.93;25.10;;;3.30;99.90;;;;;;5066579;28;20409;-60
2021/12/07 13:09:00;;;;;;;32.00;24.23;;;3.30;99.90;;;;;;5066130;28;20415;-54
2021/12/07 13:11:41;;;;;;;34.42;25.40;;;3.30;99.90;;;;;;5070856;28;20380;-55
2021/12/07 13:14:13;;;;;;;33.97;23.52;;;3.30;99.90;;;;;;5070137;28;20486;-54
2021/12/07 13:17:00;;;;;;;33.05;24.27;;;3.30;99.90;;;;;;5068130;28;20392;-57
2021/12/07 13:19:28;;;;;;;34.65;23.70;;;3.20;99.90;;;;;;5068952;28;20395;-57
2021/12/07 13:21:56;;;;;;;29.48;23.15;;;3.20;99.90;;;;;;5068562;28;20531;-56
2021/12/07 13:24:35;;;;;;;31.13;24.00;;;3.20;99.90;;;;;;5067234;28;20391;-52
2021/12/07 13:27:10;;;;;;;34.03;24.88;;;3.20;99.90;;;;;;5068596;28;20384;-51
2021/12/07 13:29:43;;;;;;;30.17;23.17;;;3.20;99.90;;;;;;5067387;28;20412;-55
2021/12/07 13:32:10;;;;;;;32.33;24.85;;;3.20;99.90;;;;;;5068111;28;20433;-52
2021/12/07 13:34:38;;;;;;;31.75;23.73;;;3.20;99.90;;;;;;5071781;28;20388;-56
2021/12/07 13:37:10;;;;;;;30.47;23.83;;;3.10;99.90;;;;;;5074439;28;20446;-54
2021/12/07 13:39:35;;;;;;;32.15;24.00;;;3.20;99.90;;;;;;5072590;28;20387;-56
2021/12/07 13:42:16;;;;;;;32.23;23.57;;;3.00;99.90;;;;;;5072965;28;20422;-55
2021/12/07 13:44:59;;;;;;;30.42;22.35;;;3.10;99.90;;;;;;5071113;28;20384;-55
2021/12/07 13:47:31;;;;;;;29.43;23.03;;;3.10;99.90;;;;;;5071794;28;20459;-57
2021/12/07 13:50:00;;;;;;;30.48;23.17;;;3.00;99.90;;;;;;5070776;28;20430;-57
2021/12/07 13:52:30;;;;;;;30.80;23.40;;;3.10;99.90;;;;;;5071082;28;20463;-56
2021/12/07 13:54:58;;;;;;;33.42;24.58;;;3.00;99.90;;;;;;5071590;28;20409;-53
2021/12/07 13:57:30;;;;;;;30.70;23.38;;;3.10;99.90;;;;;;5071577;28;20371;-57
2021/12/07 14:00:06;;;;;;;32.25;24.63;;;3.10;99.90;;;;;;5071523;28;20979;-55
2021/12/07 14:02:32;;;;;;;30.35;23.15;;;3.10;99.90;;;;;;5072102;28;20506;-57
2021/12/07 14:05:14;;;;;;;31.60;23.25;;;3.20;99.90;;;;;;5071470;28;20759;-53
2021/12/07 14:07:42;;;;;;;30.23;22.95;;;3.20;99.90;;;;;;5073443;28;20388;-57
2021/12/07 14:10:32;;;;;;;32.83;23.35;;;3.20;99.90;;;;;;5072221;28;20985;-57
2021/12/07 14:13:15;;;;;;;29.65;23.17;;;3.20;99.90;;;;;;5071006;28;20407;-57
2021/12/07 14:19:03;;;;;;;29.70;22.13;;;3.10;99.90;;;;;;5074005;28;20425;-57
2021/12/07 14:21:29;;;;;;;33.45;24.45;;;3.20;99.90;;;;;;5070683;28;20835;-55
2021/12/07 14:24:05;;;;;;;29.40;22.83;;;3.10;99.90;;;;;;5069479;28;20411;-56
2021/12/07 14:26:36;;;;;;;29.90;24.08;;;3.10;99.90;;;;;;5069438;28;20395;-59
2021/12/07 14:29:07;;;;;;;33.83;24.17;;;3.00;99.90;;;;;;5070815;28;20375;-59
2021/12/07 14:31:36;;;;;;;31.92;24.08;;;3.10;99.90;;;;;;5069879;28;20957;-59
2021/12/07 14:34:30;;;;;;;32.88;24.80;;;3.20;99.90;;;;;;5070818;28;20395;-54
2021/12/07 14:37:07;;;;;;;32.10;23.45;;;3.20;99.90;;;;;;5073641;28;20384;-55
2021/12/07 14:39:37;;;;;;;32.30;24.38;;;3.20;99.90;;;;;;5069169;28;20452;-55
2021/12/07 14:42:31;;;;;;;31.58;23.20;;;3.10;99.90;;;;;;5066446;28;20415;-56